createdAt,value
2017-07-23T00:00:58.410Z,1000.98
2017-07-23T00:02:12.438Z,1001.03
2017-07-23T00:03:26.222Z,1001.04
2017-07-23T00:04:40.804Z,1001.1
2017-07-23T00:05:54.557Z,1001.11
2017-07-23T00:07:08.317Z,1001.12
2017-07-23T00:08:22.774Z,1001.18
2017-07-23T00:09:36.866Z,1001.24
2017-07-23T00:10:51.352Z,1001.26
2017-07-23T00:12:05.414Z,1001.27
2017-07-23T00:13:19.098Z,1001.26
2017-07-23T00:14:33.527Z,1001.18
2017-07-23T00:15:47.449Z,1001.16
2017-07-23T00:17:01.415Z,1001.14
2017-07-23T00:18:16.069Z,1001.17
2017-07-23T00:19:29.947Z,1001.15
2017-07-23T00:20:46.682Z,1001.18
2017-07-23T00:22:00.921Z,1001.16
2017-07-23T00:23:15.472Z,1001.28
2017-07-23T00:24:30.660Z,1001.32
2017-07-23T00:25:46.168Z,1001.36
2017-07-23T00:27:01.068Z,1001.39
2017-07-23T00:28:15.194Z,1001.37
2017-07-23T00:29:29.014Z,1001.39
2017-07-23T00:30:44.370Z,1001.4
2017-07-23T00:31:58.407Z,1001.45
2017-07-23T00:33:13.521Z,1001.51
2017-07-23T00:34:28.187Z,1001.55
2017-07-23T00:35:42.512Z,1001.57
2017-07-23T00:36:56.396Z,1001.61
2017-07-23T00:38:10.114Z,1001.54
2017-07-23T00:39:24.221Z,1001.58
2017-07-23T00:40:37.895Z,1001.51
2017-07-23T00:41:52.609Z,1001.5
2017-07-23T00:43:06.901Z,1001.51
2017-07-23T00:44:20.870Z,1001.47
2017-07-23T00:45:34.853Z,1001.56
2017-07-23T00:46:48.562Z,1001.62
2017-07-23T00:48:02.282Z,1001.65
2017-07-23T00:49:15.961Z,1001.75
2017-07-23T00:50:30.222Z,1001.69
2017-07-23T00:51:44.233Z,1001.65
2017-07-23T00:52:58.255Z,1001.69
2017-07-23T00:54:11.861Z,1001.71
2017-07-23T00:55:25.544Z,1001.75
2017-07-23T00:56:39.079Z,1001.73
2017-07-23T00:57:53.067Z,1001.81
2017-07-23T00:59:06.716Z,1001.86
2017-07-23T01:00:20.405Z,1001.89
2017-07-23T01:01:34.430Z,1001.93
2017-07-23T01:02:49.073Z,1001.89
2017-07-23T01:04:02.891Z,1001.91
2017-07-23T01:05:17.302Z,1001.86
2017-07-23T01:06:31.844Z,1001.88
2017-07-23T01:07:46.435Z,1001.87
2017-07-23T01:09:01.270Z,1001.88
2017-07-23T01:10:15.893Z,1001.87
2017-07-23T01:11:30.089Z,1001.82
2017-07-23T01:12:43.671Z,1001.85
2017-07-23T01:13:57.170Z,1001.84
2017-07-23T01:15:10.708Z,1001.91
2017-07-23T01:16:24.564Z,1001.92
2017-07-23T01:17:38.157Z,1001.92
2017-07-23T01:18:51.814Z,1001.95
2017-07-23T01:20:05.346Z,1001.92
2017-07-23T01:21:18.870Z,1001.95
2017-07-23T01:22:32.673Z,1001.94
2017-07-23T01:23:46.283Z,1001.87
2017-07-23T01:25:00.304Z,1001.87
2017-07-23T01:26:14.202Z,1001.88
2017-07-23T01:27:27.786Z,1001.88
2017-07-23T01:28:41.703Z,1001.88
2017-07-23T01:29:55.424Z,1001.95
2017-07-23T01:31:08.939Z,1001.94
2017-07-23T01:32:22.443Z,1001.96
2017-07-23T01:33:35.958Z,1002.04
2017-07-23T01:34:49.825Z,1002.09
2017-07-23T01:36:03.355Z,1002.14
2017-07-23T01:37:17.190Z,1002.15
2017-07-23T01:38:30.841Z,1002.16
2017-07-23T01:39:44.416Z,1002.13
2017-07-23T01:40:58.229Z,1002.1
2017-07-23T01:42:12.069Z,1002.13
2017-07-23T01:43:25.575Z,1002.14
2017-07-23T01:44:39.213Z,1002.18
2017-07-23T01:45:52.810Z,1002.17
2017-07-23T01:47:06.621Z,1002.12
2017-07-23T01:48:20.254Z,1002.15
2017-07-23T01:49:34.135Z,1002.18
2017-07-23T01:50:48.017Z,1002.16
2017-07-23T01:52:01.880Z,1002.17
2017-07-23T01:53:16.698Z,1002.15
2017-07-23T01:54:30.556Z,1002.13
2017-07-23T01:55:44.101Z,1002.17
2017-07-23T01:56:58.372Z,1002.2
2017-07-23T01:58:11.901Z,1002.21
2017-07-23T01:59:25.700Z,1002.25
2017-07-23T02:00:39.271Z,1002.21
2017-07-23T02:01:52.775Z,1002.22
2017-07-23T02:03:06.772Z,1002.25
2017-07-23T02:04:20.301Z,1002.25
2017-07-23T02:05:34.110Z,1002.31
2017-07-23T02:06:47.628Z,1002.35
2017-07-23T02:08:01.160Z,1002.38
2017-07-23T02:09:14.745Z,1002.36
2017-07-23T02:10:28.710Z,1002.31
2017-07-23T02:11:42.546Z,1002.36
2017-07-23T02:12:56.046Z,1002.35
2017-07-23T02:14:09.548Z,1002.37
2017-07-23T02:15:23.141Z,1002.37
2017-07-23T02:16:37.435Z,1002.38
2017-07-23T02:17:51.448Z,1002.4
2017-07-23T02:19:05.969Z,1002.4
2017-07-23T02:20:19.846Z,1002.39
2017-07-23T02:21:33.822Z,1002.41
2017-07-23T02:22:48.138Z,1002.46
2017-07-23T02:27:04.818Z,1002.54
2017-07-23T02:28:18.586Z,1002.52
2017-07-23T02:29:32.497Z,1002.52
2017-07-23T02:30:46.303Z,1002.54
